Terminal Aerodrome Forecast
Issued by NWS Pittsburgh, PA

Home | Current Version | Previous Version | Text Only | Print | Product List | Glossary On
Versions: 1 2 3 4 5 6 7 8 9 10 11 12 13 14 15 16 17 18 19 20 21 22 23 24 25 26 27 28 29
839
FTUS41 KPBZ 121740
TAFPIT
TAF
KPIT 121740Z 1218/1324 31015G25KT P6SM -SHSN OVC025
      TEMPO 1218/1219 1SM -SHSN
     FM122100 29013G28KT 5SM -SHSN OVC025
     FM130900 28013G22KT P6SM BKN050
     FM132100 26009KT 3SM -SN BKN050=

USA.gov is the U.S. government's official web portal to all federal, state and local government web resources and services.